sensor_id;sensor_type;location;lat;lon;timestamp;P1;durP1;ratioP1;P2;durP2;ratioP2
45522;SDS011;31254;51.680;5.394;2023-04-05T00:00:12;12.43;;;6.70;;
45522;SDS011;31254;51.680;5.394;2023-04-05T00:02:40;14.73;;;7.63;;
45522;SDS011;31254;51.680;5.394;2023-04-05T00:05:07;17.23;;;7.80;;
45522;SDS011;31254;51.680;5.394;2023-04-05T00:07:35;15.83;;;7.40;;
45522;SDS011;31254;51.680;5.394;2023-04-05T00:10:01;12.77;;;7.83;;
45522;SDS011;31254;51.680;5.394;2023-04-05T00:12:28;14.20;;;7.63;;
45522;SDS011;31254;51.680;5.394;2023-04-05T00:14:55;17.17;;;7.23;;
45522;SDS011;31254;51.680;5.394;2023-04-05T00:17:22;15.33;;;7.47;;
45522;SDS011;31254;51.680;5.394;2023-04-05T00:19:49;11.87;;;7.53;;
45522;SDS011;31254;51.680;5.394;2023-04-05T00:22:25;15.70;;;7.83;;
45522;SDS011;31254;51.680;5.394;2023-04-05T00:24:51;12.10;;;7.90;;
45522;SDS011;31254;51.680;5.394;2023-04-05T00:27:18;13.57;;;7.63;;
45522;SDS011;31254;51.680;5.394;2023-04-05T00:29:45;16.43;;;7.70;;
45522;SDS011;31254;51.680;5.394;2023-04-05T00:32:16;15.33;;;7.67;;
45522;SDS011;31254;51.680;5.394;2023-04-05T00:34:46;13.13;;;7.60;;
45522;SDS011;31254;51.680;5.394;2023-04-05T00:37:12;15.70;;;7.47;;
45522;SDS011;31254;51.680;5.394;2023-04-05T00:39:39;12.17;;;7.40;;
45522;SDS011;31254;51.680;5.394;2023-04-05T00:42:06;14.20;;;7.43;;
45522;SDS011;31254;51.680;5.394;2023-04-05T00:44:34;13.93;;;7.97;;
45522;SDS011;31254;51.680;5.394;2023-04-05T00:47:06;13.03;;;7.30;;
45522;SDS011;31254;51.680;5.394;2023-04-05T00:49:33;11.87;;;6.87;;
45522;SDS011;31254;51.680;5.394;2023-04-05T00:52:01;17.70;;;7.53;;
45522;SDS011;31254;51.680;5.394;2023-04-05T00:54:31;13.00;;;7.47;;
45522;SDS011;31254;51.680;5.394;2023-04-05T00:57:00;14.40;;;7.80;;
45522;SDS011;31254;51.680;5.394;2023-04-05T00:59:27;15.33;;;7.50;;
45522;SDS011;31254;51.680;5.394;2023-04-05T01:01:55;11.13;;;6.73;;
45522;SDS011;31254;51.680;5.394;2023-04-05T01:04:34;21.60;;;7.87;;
45522;SDS011;31254;51.680;5.394;2023-04-05T01:07:06;18.93;;;7.80;;
45522;SDS011;31254;51.680;5.394;2023-04-05T01:09:47;14.93;;;7.90;;
45522;SDS011;31254;51.680;5.394;2023-04-05T01:12:22;13.70;;;8.27;;
45522;SDS011;31254;51.680;5.394;2023-04-05T01:14:53;14.87;;;7.80;;
45522;SDS011;31254;51.680;5.394;2023-04-05T01:17:21;15.57;;;8.40;;
45522;SDS011;31254;51.680;5.394;2023-04-05T01:19:50;15.07;;;7.63;;
45522;SDS011;31254;51.680;5.394;2023-04-05T01:28:15;16.20;;;7.63;;
45522;SDS011;31254;51.680;5.394;2023-04-05T01:31:06;14.80;;;8.17;;
45522;SDS011;31254;51.680;5.394;2023-04-05T01:39:04;13.83;;;8.37;;
45522;SDS011;31254;51.680;5.394;2023-04-05T01:41:34;14.73;;;8.03;;
45522;SDS011;31254;51.680;5.394;2023-04-05T01:44:03;14.93;;;7.70;;
45522;SDS011;31254;51.680;5.394;2023-04-05T01:46:30;13.30;;;8.00;;
45522;SDS011;31254;51.680;5.394;2023-04-05T01:48:57;12.63;;;7.83;;
45522;SDS011;31254;51.680;5.394;2023-04-05T01:51:24;12.50;;;8.20;;
45522;SDS011;31254;51.680;5.394;2023-04-05T01:53:51;12.23;;;7.83;;
45522;SDS011;31254;51.680;5.394;2023-04-05T01:56:18;14.93;;;8.53;;
45522;SDS011;31254;51.680;5.394;2023-04-05T01:58:45;12.87;;;8.00;;
45522;SDS011;31254;51.680;5.394;2023-04-05T02:01:11;14.13;;;8.00;;
45522;SDS011;31254;51.680;5.394;2023-04-05T02:03:41;15.23;;;8.03;;
45522;SDS011;31254;51.680;5.394;2023-04-05T02:06:08;13.43;;;7.90;;
45522;SDS011;31254;51.680;5.394;2023-04-05T02:08:34;12.60;;;7.80;;
45522;SDS011;31254;51.680;5.394;2023-04-05T02:11:01;14.00;;;8.37;;
45522;SDS011;31254;51.680;5.394;2023-04-05T02:13:28;12.40;;;8.13;;
45522;SDS011;31254;51.680;5.394;2023-04-05T02:15:57;12.07;;;7.93;;
45522;SDS011;31254;51.680;5.394;2023-04-05T02:18:24;14.77;;;8.10;;
45522;SDS011;31254;51.680;5.394;2023-04-05T02:21:02;12.83;;;8.30;;
45522;SDS011;31254;51.680;5.394;2023-04-05T02:23:33;15.13;;;8.27;;
45522;SDS011;31254;51.680;5.394;2023-04-05T02:26:00;14.63;;;8.27;;
45522;SDS011;31254;51.680;5.394;2023-04-05T02:28:29;14.87;;;8.97;;
45522;SDS011;31254;51.680;5.394;2023-04-05T02:30:56;17.30;;;8.87;;
45522;SDS011;31254;51.680;5.394;2023-04-05T02:33:25;12.30;;;8.27;;
45522;SDS011;31254;51.680;5.394;2023-04-05T02:35:54;12.43;;;8.10;;
45522;SDS011;31254;51.680;5.394;2023-04-05T02:38:23;17.63;;;8.90;;
45522;SDS011;31254;51.680;5.394;2023-04-05T02:40:50;14.27;;;8.00;;
45522;SDS011;31254;51.680;5.394;2023-04-05T02:43:17;14.97;;;9.10;;
45522;SDS011;31254;51.680;5.394;2023-04-05T02:45:43;13.47;;;8.30;;
45522;SDS011;31254;51.680;5.394;2023-04-05T02:48:13;12.07;;;8.13;;
45522;SDS011;31254;51.680;5.394;2023-04-05T02:50:40;14.93;;;8.50;;
45522;SDS011;31254;51.680;5.394;2023-04-05T02:53:07;13.73;;;8.73;;
45522;SDS011;31254;51.680;5.394;2023-04-05T02:55:34;14.67;;;8.47;;
45522;SDS011;31254;51.680;5.394;2023-04-05T02:58:01;13.57;;;8.63;;
45522;SDS011;31254;51.680;5.394;2023-04-05T03:00:30;12.77;;;8.17;;
45522;SDS011;31254;51.680;5.394;2023-04-05T03:02:57;13.67;;;8.30;;
45522;SDS011;31254;51.680;5.394;2023-04-05T03:05:24;16.67;;;8.87;;
45522;SDS011;31254;51.680;5.394;2023-04-05T03:07:51;13.67;;;7.87;;
45522;SDS011;31254;51.680;5.394;2023-04-05T03:10:19;15.40;;;7.87;;
45522;SDS011;31254;51.680;5.394;2023-04-05T03:12:47;13.77;;;8.40;;
45522;SDS011;31254;51.680;5.394;2023-04-05T03:15:16;12.60;;;7.77;;
45522;SDS011;31254;51.680;5.394;2023-04-05T03:17:45;13.30;;;7.83;;
45522;SDS011;31254;51.680;5.394;2023-04-05T03:20:12;13.87;;;8.60;;
45522;SDS011;31254;51.680;5.394;2023-04-05T03:22:39;15.47;;;8.63;;
45522;SDS011;31254;51.680;5.394;2023-04-05T03:25:06;15.57;;;8.73;;
45522;SDS011;31254;51.680;5.394;2023-04-05T03:27:33;14.20;;;8.90;;
45522;SDS011;31254;51.680;5.394;2023-04-05T03:30:00;13.30;;;8.63;;
45522;SDS011;31254;51.680;5.394;2023-04-05T03:32:27;14.03;;;8.57;;
45522;SDS011;31254;51.680;5.394;2023-04-05T03:34:56;13.70;;;8.37;;
45522;SDS011;31254;51.680;5.394;2023-04-05T03:37:26;13.90;;;8.57;;
45522;SDS011;31254;51.680;5.394;2023-04-05T03:39:57;13.87;;;8.47;;
45522;SDS011;31254;51.680;5.394;2023-04-05T03:42:24;12.93;;;7.93;;
45522;SDS011;31254;51.680;5.394;2023-04-05T03:44:53;15.80;;;9.00;;
45522;SDS011;31254;51.680;5.394;2023-04-05T03:47:20;13.80;;;8.60;;
45522;SDS011;31254;51.680;5.394;2023-04-05T03:49:46;14.90;;;8.57;;
45522;SDS011;31254;51.680;5.394;2023-04-05T03:52:13;16.87;;;9.40;;
45522;SDS011;31254;51.680;5.394;2023-04-05T03:54:40;12.83;;;8.27;;
45522;SDS011;31254;51.680;5.394;2023-04-05T03:57:09;13.73;;;8.20;;
45522;SDS011;31254;51.680;5.394;2023-04-05T03:59:38;14.37;;;8.50;;
45522;SDS011;31254;51.680;5.394;2023-04-05T04:02:05;15.73;;;9.00;;
45522;SDS011;31254;51.680;5.394;2023-04-05T04:04:32;17.20;;;8.80;;
45522;SDS011;31254;51.680;5.394;2023-04-05T04:06:59;15.00;;;8.93;;
45522;SDS011;31254;51.680;5.394;2023-04-05T04:09:25;16.30;;;9.43;;
45522;SDS011;31254;51.680;5.394;2023-04-05T04:11:55;15.27;;;8.73;;
45522;SDS011;31254;51.680;5.394;2023-04-05T04:14:24;15.23;;;8.67;;
45522;SDS011;31254;51.680;5.394;2023-04-05T04:16:51;12.73;;;8.53;;
45522;SDS011;31254;51.680;5.394;2023-04-05T04:19:17;16.50;;;9.30;;
45522;SDS011;31254;51.680;5.394;2023-04-05T04:21:44;13.27;;;8.47;;
45522;SDS011;31254;51.680;5.394;2023-04-05T04:24:17;15.60;;;8.70;;
45522;SDS011;31254;51.680;5.394;2023-04-05T04:26:44;15.53;;;8.90;;
45522;SDS011;31254;51.680;5.394;2023-04-05T04:29:12;17.43;;;8.73;;
45522;SDS011;31254;51.680;5.394;2023-04-05T04:31:41;20.03;;;9.13;;
45522;SDS011;31254;51.680;5.394;2023-04-05T04:34:15;15.87;;;9.30;;
45522;SDS011;31254;51.680;5.394;2023-04-05T04:36:44;17.17;;;8.67;;
45522;SDS011;31254;51.680;5.394;2023-04-05T04:39:13;14.57;;;8.83;;
45522;SDS011;31254;51.680;5.394;2023-04-05T04:41:43;14.83;;;9.87;;
45522;SDS011;31254;51.680;5.394;2023-04-05T04:44:12;16.33;;;9.17;;
45522;SDS011;31254;51.680;5.394;2023-04-05T04:46:40;16.90;;;8.37;;
45522;SDS011;31254;51.680;5.394;2023-04-05T04:49:12;14.40;;;8.43;;
45522;SDS011;31254;51.680;5.394;2023-04-05T04:51:38;16.70;;;8.37;;
45522;SDS011;31254;51.680;5.394;2023-04-05T04:54:08;15.83;;;8.67;;
45522;SDS011;31254;51.680;5.394;2023-04-05T04:56:35;14.60;;;8.43;;
45522;SDS011;31254;51.680;5.394;2023-04-05T04:59:02;16.07;;;8.47;;
45522;SDS011;31254;51.680;5.394;2023-04-05T05:01:28;13.40;;;8.80;;
45522;SDS011;31254;51.680;5.394;2023-04-05T05:03:59;16.57;;;9.87;;
45522;SDS011;31254;51.680;5.394;2023-04-05T05:06:26;17.27;;;8.77;;
45522;SDS011;31254;51.680;5.394;2023-04-05T05:08:54;14.63;;;9.07;;
45522;SDS011;31254;51.680;5.394;2023-04-05T05:11:21;12.80;;;8.00;;
45522;SDS011;31254;51.680;5.394;2023-04-05T05:13:50;15.70;;;9.07;;
45522;SDS011;31254;51.680;5.394;2023-04-05T05:16:18;13.50;;;8.90;;
45522;SDS011;31254;51.680;5.394;2023-04-05T05:18:49;20.33;;;8.90;;
45522;SDS011;31254;51.680;5.394;2023-04-05T05:21:17;15.00;;;8.53;;
45522;SDS011;31254;51.680;5.394;2023-04-05T05:23:44;15.57;;;9.20;;
45522;SDS011;31254;51.680;5.394;2023-04-05T05:26:11;18.53;;;9.03;;
45522;SDS011;31254;51.680;5.394;2023-04-05T05:28:39;17.17;;;8.83;;
45522;SDS011;31254;51.680;5.394;2023-04-05T05:31:06;20.17;;;9.73;;
45522;SDS011;31254;51.680;5.394;2023-04-05T05:33:33;15.50;;;9.33;;
45522;SDS011;31254;51.680;5.394;2023-04-05T05:36:02;16.60;;;9.80;;
45522;SDS011;31254;51.680;5.394;2023-04-05T05:38:29;16.93;;;9.70;;
45522;SDS011;31254;51.680;5.394;2023-04-05T05:40:58;17.63;;;9.97;;
45522;SDS011;31254;51.680;5.394;2023-04-05T05:43:27;17.30;;;9.47;;
45522;SDS011;31254;51.680;5.394;2023-04-05T05:45:54;14.83;;;9.23;;
45522;SDS011;31254;51.680;5.394;2023-04-05T05:48:22;15.50;;;8.97;;
45522;SDS011;31254;51.680;5.394;2023-04-05T05:50:51;16.50;;;9.00;;
45522;SDS011;31254;51.680;5.394;2023-04-05T05:53:21;16.43;;;10.10;;
45522;SDS011;31254;51.680;5.394;2023-04-05T05:55:48;16.37;;;10.20;;
45522;SDS011;31254;51.680;5.394;2023-04-05T05:58:17;17.83;;;10.20;;
45522;SDS011;31254;51.680;5.394;2023-04-05T06:00:43;16.87;;;9.27;;
45522;SDS011;31254;51.680;5.394;2023-04-05T06:03:15;19.27;;;10.13;;
45522;SDS011;31254;51.680;5.394;2023-04-05T06:05:51;23.23;;;10.40;;
45522;SDS011;31254;51.680;5.394;2023-04-05T06:08:18;14.67;;;9.50;;
45522;SDS011;31254;51.680;5.394;2023-04-05T06:10:45;18.20;;;9.27;;
45522;SDS011;31254;51.680;5.394;2023-04-05T06:13:12;14.30;;;8.70;;
45522;SDS011;31254;51.680;5.394;2023-04-05T06:15:38;13.17;;;8.20;;
45522;SDS011;31254;51.680;5.394;2023-04-05T06:18:05;19.10;;;8.90;;
45522;SDS011;31254;51.680;5.394;2023-04-05T06:20:32;13.20;;;8.03;;
45522;SDS011;31254;51.680;5.394;2023-04-05T06:22:59;12.03;;;8.43;;
45522;SDS011;31254;51.680;5.394;2023-04-05T06:25:26;16.20;;;7.87;;
45522;SDS011;31254;51.680;5.394;2023-04-05T06:27:52;12.13;;;7.53;;
45522;SDS011;31254;51.680;5.394;2023-04-05T06:30:19;12.90;;;8.27;;
45522;SDS011;31254;51.680;5.394;2023-04-05T06:32:46;19.93;;;8.03;;
45522;SDS011;31254;51.680;5.394;2023-04-05T06:35:13;12.90;;;8.13;;
45522;SDS011;31254;51.680;5.394;2023-04-05T06:37:40;22.03;;;8.67;;
45522;SDS011;31254;51.680;5.394;2023-04-05T06:40:10;17.63;;;8.13;;
45522;SDS011;31254;51.680;5.394;2023-04-05T06:42:39;15.73;;;8.67;;
45522;SDS011;31254;51.680;5.394;2023-04-05T06:45:06;13.50;;;7.45;;
45522;SDS011;31254;51.680;5.394;2023-04-05T06:47:33;12.27;;;7.55;;
45522;SDS011;31254;51.680;5.394;2023-04-05T06:50:01;10.70;;;7.45;;
45522;SDS011;31254;51.680;5.394;2023-04-05T06:52:28;13.57;;;7.55;;
45522;SDS011;31254;51.680;5.394;2023-04-05T06:54:57;14.77;;;7.13;;
45522;SDS011;31254;51.680;5.394;2023-04-05T06:57:26;14.85;;;7.30;;
45522;SDS011;31254;51.680;5.394;2023-04-05T06:59:53;11.48;;;6.95;;
45522;SDS011;31254;51.680;5.394;2023-04-05T07:02:20;12.20;;;6.57;;
45522;SDS011;31254;51.680;5.394;2023-04-05T07:04:52;14.32;;;6.97;;
45522;SDS011;31254;51.680;5.394;2023-04-05T07:07:19;16.35;;;7.15;;
45522;SDS011;31254;51.680;5.394;2023-04-05T07:09:45;15.52;;;6.55;;
45522;SDS011;31254;51.680;5.394;2023-04-05T07:12:12;11.63;;;6.93;;
45522;SDS011;31254;51.680;5.394;2023-04-05T07:14:39;10.98;;;6.63;;
45522;SDS011;31254;51.680;5.394;2023-04-05T07:17:06;14.18;;;6.78;;
45522;SDS011;31254;51.680;5.394;2023-04-05T07:19:35;11.48;;;6.30;;
45522;SDS011;31254;51.680;5.394;2023-04-05T07:22:02;9.80;;;5.95;;
45522;SDS011;31254;51.680;5.394;2023-04-05T07:24:29;12.68;;;7.15;;
45522;SDS011;31254;51.680;5.394;2023-04-05T07:27:00;10.27;;;6.70;;
45522;SDS011;31254;51.680;5.394;2023-04-05T07:29:28;14.27;;;6.55;;
45522;SDS011;31254;51.680;5.394;2023-04-05T07:31:55;9.98;;;6.78;;
45522;SDS011;31254;51.680;5.394;2023-04-05T07:34:22;10.35;;;6.55;;
45522;SDS011;31254;51.680;5.394;2023-04-05T07:36:48;13.95;;;7.10;;
45522;SDS011;31254;51.680;5.394;2023-04-05T07:39:15;12.57;;;8.18;;
45522;SDS011;31254;51.680;5.394;2023-04-05T07:41:42;16.73;;;7.47;;
45522;SDS011;31254;51.680;5.394;2023-04-05T07:44:09;12.10;;;7.53;;
45522;SDS011;31254;51.680;5.394;2023-04-05T07:46:35;11.85;;;7.10;;
45522;SDS011;31254;51.680;5.394;2023-04-05T07:49:03;12.70;;;7.78;;
45522;SDS011;31254;51.680;5.394;2023-04-05T07:51:30;15.35;;;7.57;;
45522;SDS011;31254;51.680;5.394;2023-04-05T07:54:01;12.27;;;8.02;;
45522;SDS011;31254;51.680;5.394;2023-04-05T07:56:28;14.77;;;8.00;;
45522;SDS011;31254;51.680;5.394;2023-04-05T07:58:58;13.88;;;7.55;;
45522;SDS011;31254;51.680;5.394;2023-04-05T08:01:25;12.88;;;7.60;;
45522;SDS011;31254;51.680;5.394;2023-04-05T08:03:54;14.48;;;7.63;;
45522;SDS011;31254;51.680;5.394;2023-04-05T08:06:22;11.77;;;7.38;;
45522;SDS011;31254;51.680;5.394;2023-04-05T08:08:52;13.48;;;7.28;;
45522;SDS011;31254;51.680;5.394;2023-04-05T08:11:19;17.20;;;7.88;;
45522;SDS011;31254;51.680;5.394;2023-04-05T08:13:49;12.73;;;7.47;;
45522;SDS011;31254;51.680;5.394;2023-04-05T08:16:15;12.10;;;7.28;;
45522;SDS011;31254;51.680;5.394;2023-04-05T08:18:42;10.77;;;7.18;;
45522;SDS011;31254;51.680;5.394;2023-04-05T08:21:09;13.85;;;6.68;;
45522;SDS011;31254;51.680;5.394;2023-04-05T08:23:36;12.88;;;7.65;;
45522;SDS011;31254;51.680;5.394;2023-04-05T08:26:07;11.73;;;7.40;;
45522;SDS011;31254;51.680;5.394;2023-04-05T08:28:34;14.63;;;8.20;;
45522;SDS011;31254;51.680;5.394;2023-04-05T08:31:00;12.00;;;6.72;;
45522;SDS011;31254;51.680;5.394;2023-04-05T08:33:29;11.68;;;6.97;;
45522;SDS011;31254;51.680;5.394;2023-04-05T08:35:56;10.93;;;6.85;;
45522;SDS011;31254;51.680;5.394;2023-04-05T08:38:25;12.07;;;6.85;;
45522;SDS011;31254;51.680;5.394;2023-04-05T08:40:52;14.88;;;6.70;;
45522;SDS011;31254;51.680;5.394;2023-04-05T08:46:23;11.30;;;6.25;;
45522;SDS011;31254;51.680;5.394;2023-04-05T08:48:50;11.18;;;7.00;;
45522;SDS011;31254;51.680;5.394;2023-04-05T08:51:19;12.05;;;7.13;;
45522;SDS011;31254;51.680;5.394;2023-04-05T08:53:48;13.23;;;6.65;;
45522;SDS011;31254;51.680;5.394;2023-04-05T08:56:18;12.60;;;6.45;;
45522;SDS011;31254;51.680;5.394;2023-04-05T08:59:09;11.32;;;6.60;;
45522;SDS011;31254;51.680;5.394;2023-04-05T09:01:36;11.52;;;6.78;;
45522;SDS011;31254;51.680;5.394;2023-04-05T09:04:14;15.93;;;7.32;;
45522;SDS011;31254;51.680;5.394;2023-04-05T09:06:43;10.93;;;7.05;;
45522;SDS011;31254;51.680;5.394;2023-04-05T09:09:12;10.55;;;7.07;;
45522;SDS011;31254;51.680;5.394;2023-04-05T09:11:43;13.20;;;6.72;;
45522;SDS011;31254;51.680;5.394;2023-04-05T09:14:09;10.65;;;6.82;;
45522;SDS011;31254;51.680;5.394;2023-04-05T09:16:37;11.85;;;7.20;;
45522;SDS011;31254;51.680;5.394;2023-04-05T09:19:06;19.08;;;8.02;;
45522;SDS011;31254;51.680;5.394;2023-04-05T09:24:33;10.70;;;6.65;;
45522;SDS011;31254;51.680;5.394;2023-04-05T09:27:02;12.10;;;6.53;;
45522;SDS011;31254;51.680;5.394;2023-04-05T09:29:34;11.45;;;6.93;;
45522;SDS011;31254;51.680;5.394;2023-04-05T09:32:01;13.43;;;6.60;;
45522;SDS011;31254;51.680;5.394;2023-04-05T09:34:29;10.77;;;5.65;;
45522;SDS011;31254;51.680;5.394;2023-04-05T09:37:02;9.75;;;5.20;;
45522;SDS011;31254;51.680;5.394;2023-04-05T09:39:49;8.50;;;5.00;;
45522;SDS011;31254;51.680;5.394;2023-04-05T09:42:26;9.73;;;5.20;;
45522;SDS011;31254;51.680;5.394;2023-04-05T09:45:01;10.93;;;5.55;;
45522;SDS011;31254;51.680;5.394;2023-04-05T09:47:31;12.07;;;5.68;;
45522;SDS011;31254;51.680;5.394;2023-04-05T09:50:00;12.38;;;5.70;;
45522;SDS011;31254;51.680;5.394;2023-04-05T09:52:33;10.65;;;5.95;;
45522;SDS011;31254;51.680;5.394;2023-04-05T09:55:02;10.35;;;5.80;;
45522;SDS011;31254;51.680;5.394;2023-04-05T09:57:38;11.35;;;6.22;;
45522;SDS011;31254;51.680;5.394;2023-04-05T10:00:15;10.48;;;6.22;;
45522;SDS011;31254;51.680;5.394;2023-04-05T10:02:44;12.80;;;6.82;;
45522;SDS011;31254;51.680;5.394;2023-04-05T10:05:17;11.68;;;6.55;;
45522;SDS011;31254;51.680;5.394;2023-04-05T10:07:43;10.73;;;6.22;;
45522;SDS011;31254;51.680;5.394;2023-04-05T10:10:11;10.88;;;5.50;;
45522;SDS011;31254;51.680;5.394;2023-04-05T10:12:41;9.93;;;5.95;;
45522;SDS011;31254;51.680;5.394;2023-04-05T10:15:08;10.55;;;5.95;;
45522;SDS011;31254;51.680;5.394;2023-04-05T10:17:38;11.95;;;6.05;;
45522;SDS011;31254;51.680;5.394;2023-04-05T10:20:14;8.65;;;5.25;;
45522;SDS011;31254;51.680;5.394;2023-04-05T10:28:03;9.73;;;5.63;;
45522;SDS011;31254;51.680;5.394;2023-04-05T10:30:33;9.68;;;5.65;;
45522;SDS011;31254;51.680;5.394;2023-04-05T10:36:09;11.20;;;6.93;;
45522;SDS011;31254;51.680;5.394;2023-04-05T10:38:44;15.43;;;6.53;;
45522;SDS011;31254;51.680;5.394;2023-04-05T10:41:14;12.30;;;6.85;;
45522;SDS011;31254;51.680;5.394;2023-04-05T10:43:44;15.85;;;5.88;;
45522;SDS011;31254;51.680;5.394;2023-04-05T10:46:12;10.77;;;6.45;;
45522;SDS011;31254;51.680;5.394;2023-04-05T10:48:53;11.30;;;6.55;;
45522;SDS011;31254;51.680;5.394;2023-04-05T10:51:37;9.80;;;6.43;;
45522;SDS011;31254;51.680;5.394;2023-04-05T10:54:06;11.05;;;6.40;;
45522;SDS011;31254;51.680;5.394;2023-04-05T10:56:35;12.15;;;5.90;;
45522;SDS011;31254;51.680;5.394;2023-04-05T10:59:03;9.77;;;6.40;;
45522;SDS011;31254;51.680;5.394;2023-04-05T11:01:31;10.15;;;6.00;;
45522;SDS011;31254;51.680;5.394;2023-04-05T11:04:09;9.70;;;5.90;;
45522;SDS011;31254;51.680;5.394;2023-04-05T11:06:46;8.82;;;5.63;;
45522;SDS011;31254;51.680;5.394;2023-04-05T11:09:16;11.05;;;5.80;;
45522;SDS011;31254;51.680;5.394;2023-04-05T11:11:49;11.38;;;5.97;;
45522;SDS011;31254;51.680;5.394;2023-04-05T11:14:26;7.57;;;5.57;;
45522;SDS011;31254;51.680;5.394;2023-04-05T11:17:02;10.90;;;6.20;;
45522;SDS011;31254;51.680;5.394;2023-04-05T11:22:08;11.55;;;6.68;;
45522;SDS011;31254;51.680;5.394;2023-04-05T11:24:51;10.57;;;6.00;;
45522;SDS011;31254;51.680;5.394;2023-04-05T11:27:26;12.57;;;5.97;;
45522;SDS011;31254;51.680;5.394;2023-04-05T11:29:56;9.35;;;6.00;;
45522;SDS011;31254;51.680;5.394;2023-04-05T11:32:44;8.35;;;5.50;;
45522;SDS011;31254;51.680;5.394;2023-04-05T11:35:15;10.73;;;5.93;;
45522;SDS011;31254;51.680;5.394;2023-04-05T11:40:42;12.80;;;6.43;;
45522;SDS011;31254;51.680;5.394;2023-04-05T11:43:10;9.23;;;6.07;;
45522;SDS011;31254;51.680;5.394;2023-04-05T11:45:37;9.55;;;5.65;;
45522;SDS011;31254;51.680;5.394;2023-04-05T11:48:13;11.13;;;6.05;;
45522;SDS011;31254;51.680;5.394;2023-04-05T11:50:40;10.20;;;5.63;;
45522;SDS011;31254;51.680;5.394;2023-04-05T11:53:11;11.13;;;5.90;;
45522;SDS011;31254;51.680;5.394;2023-04-05T11:55:50;10.13;;;6.13;;
45522;SDS011;31254;51.680;5.394;2023-04-05T11:58:23;10.82;;;6.15;;
45522;SDS011;31254;51.680;5.394;2023-04-05T12:01:00;12.55;;;5.93;;
45522;SDS011;31254;51.680;5.394;2023-04-05T12:03:30;10.27;;;6.05;;
45522;SDS011;31254;51.680;5.394;2023-04-05T12:05:58;10.45;;;5.80;;
45522;SDS011;31254;51.680;5.394;2023-04-05T12:08:38;10.07;;;6.03;;
45522;SDS011;31254;51.680;5.394;2023-04-05T12:11:16;9.43;;;6.00;;
45522;SDS011;31254;51.680;5.394;2023-04-05T12:13:53;10.95;;;5.45;;
45522;SDS011;31254;51.680;5.394;2023-04-05T12:16:21;10.48;;;6.40;;
45522;SDS011;31254;51.680;5.394;2023-04-05T12:21:21;11.70;;;5.97;;
45522;SDS011;31254;51.680;5.394;2023-04-05T12:23:49;11.27;;;6.70;;
45522;SDS011;31254;51.680;5.394;2023-04-05T12:26:17;12.38;;;6.35;;
45522;SDS011;31254;51.680;5.394;2023-04-05T12:31:39;11.35;;;5.88;;
45522;SDS011;31254;51.680;5.394;2023-04-05T12:34:10;10.30;;;6.10;;
45522;SDS011;31254;51.680;5.394;2023-04-05T12:36:38;8.10;;;5.63;;
45522;SDS011;31254;51.680;5.394;2023-04-05T12:39:09;8.52;;;5.75;;
45522;SDS011;31254;51.680;5.394;2023-04-05T12:41:36;9.93;;;6.30;;
45522;SDS011;31254;51.680;5.394;2023-04-05T12:44:04;11.38;;;6.38;;
45522;SDS011;31254;51.680;5.394;2023-04-05T12:47:00;8.00;;;5.82;;
45522;SDS011;31254;51.680;5.394;2023-04-05T12:49:36;8.48;;;5.53;;
45522;SDS011;31254;51.680;5.394;2023-04-05T12:52:03;8.98;;;5.82;;
45522;SDS011;31254;51.680;5.394;2023-04-05T12:54:30;9.40;;;6.18;;
45522;SDS011;31254;51.680;5.394;2023-04-05T12:56:57;11.10;;;5.70;;
45522;SDS011;31254;51.680;5.394;2023-04-05T12:59:27;11.73;;;6.80;;
45522;SDS011;31254;51.680;5.394;2023-04-05T13:01:54;10.82;;;5.85;;
45522;SDS011;31254;51.680;5.394;2023-04-05T13:04:21;9.02;;;5.63;;
45522;SDS011;31254;51.680;5.394;2023-04-05T13:06:49;9.30;;;5.60;;
45522;SDS011;31254;51.680;5.394;2023-04-05T13:09:20;10.10;;;6.22;;
45522;SDS011;31254;51.680;5.394;2023-04-05T13:11:46;9.75;;;5.90;;
45522;SDS011;31254;51.680;5.394;2023-04-05T13:14:13;11.52;;;6.45;;
45522;SDS011;31254;51.680;5.394;2023-04-05T13:16:39;10.10;;;6.13;;
45522;SDS011;31254;51.680;5.394;2023-04-05T13:19:06;9.40;;;5.75;;
45522;SDS011;31254;51.680;5.394;2023-04-05T13:21:33;8.05;;;5.63;;
45522;SDS011;31254;51.680;5.394;2023-04-05T13:23:59;13.73;;;5.85;;
45522;SDS011;31254;51.680;5.394;2023-04-05T13:26:29;14.45;;;6.38;;
45522;SDS011;31254;51.680;5.394;2023-04-05T13:28:55;9.57;;;5.93;;
45522;SDS011;31254;51.680;5.394;2023-04-05T13:31:24;9.65;;;5.38;;
45522;SDS011;31254;51.680;5.394;2023-04-05T13:33:55;10.10;;;5.57;;
45522;SDS011;31254;51.680;5.394;2023-04-05T13:36:23;9.48;;;6.07;;
45522;SDS011;31254;51.680;5.394;2023-04-05T13:38:51;11.38;;;6.30;;
45522;SDS011;31254;51.680;5.394;2023-04-05T13:41:22;9.00;;;5.68;;
45522;SDS011;31254;51.680;5.394;2023-04-05T13:43:51;10.50;;;6.28;;
45522;SDS011;31254;51.680;5.394;2023-04-05T13:46:20;9.45;;;5.68;;
45522;SDS011;31254;51.680;5.394;2023-04-05T13:48:46;17.45;;;6.25;;
45522;SDS011;31254;51.680;5.394;2023-04-05T13:51:15;8.77;;;5.90;;
45522;SDS011;31254;51.680;5.394;2023-04-05T13:53:42;9.35;;;6.05;;
45522;SDS011;31254;51.680;5.394;2023-04-05T13:56:09;11.80;;;6.05;;
45522;SDS011;31254;51.680;5.394;2023-04-05T13:58:35;9.32;;;5.45;;
45522;SDS011;31254;51.680;5.394;2023-04-05T14:01:02;12.50;;;6.00;;
45522;SDS011;31254;51.680;5.394;2023-04-05T14:03:31;9.73;;;6.00;;
45522;SDS011;31254;51.680;5.394;2023-04-05T14:06:01;12.93;;;5.70;;
45522;SDS011;31254;51.680;5.394;2023-04-05T14:08:27;9.00;;;6.38;;
45522;SDS011;31254;51.680;5.394;2023-04-05T14:10:54;10.65;;;5.68;;
45522;SDS011;31254;51.680;5.394;2023-04-05T14:13:21;9.25;;;5.63;;
45522;SDS011;31254;51.680;5.394;2023-04-05T14:15:48;9.25;;;5.55;;
45522;SDS011;31254;51.680;5.394;2023-04-05T14:18:15;10.70;;;6.15;;
45522;SDS011;31254;51.680;5.394;2023-04-05T14:20:42;8.35;;;5.30;;
45522;SDS011;31254;51.680;5.394;2023-04-05T14:23:11;13.07;;;6.03;;
45522;SDS011;31254;51.680;5.394;2023-04-05T14:25:38;11.23;;;6.28;;
45522;SDS011;31254;51.680;5.394;2023-04-05T14:28:05;10.35;;;6.07;;
45522;SDS011;31254;51.680;5.394;2023-04-05T14:30:32;10.88;;;6.57;;
45522;SDS011;31254;51.680;5.394;2023-04-05T14:32:58;12.40;;;7.05;;
45522;SDS011;31254;51.680;5.394;2023-04-05T14:35:25;11.65;;;6.57;;
45522;SDS011;31254;51.680;5.394;2023-04-05T14:37:52;10.55;;;6.22;;
45522;SDS011;31254;51.680;5.394;2023-04-05T14:40:21;8.80;;;5.85;;
45522;SDS011;31254;51.680;5.394;2023-04-05T14:42:48;10.95;;;6.57;;
45522;SDS011;31254;51.680;5.394;2023-04-05T14:45:16;13.45;;;6.95;;
45522;SDS011;31254;51.680;5.394;2023-04-05T14:47:43;8.88;;;5.88;;
45522;SDS011;31254;51.680;5.394;2023-04-05T14:50:10;10.00;;;6.60;;
45522;SDS011;31254;51.680;5.394;2023-04-05T14:52:36;8.38;;;5.95;;
45522;SDS011;31254;51.680;5.394;2023-04-05T14:55:05;10.52;;;6.25;;
45522;SDS011;31254;51.680;5.394;2023-04-05T14:57:35;10.00;;;6.40;;
45522;SDS011;31254;51.680;5.394;2023-04-05T15:00:01;13.88;;;6.53;;
45522;SDS011;31254;51.680;5.394;2023-04-05T15:02:28;10.27;;;6.60;;
45522;SDS011;31254;51.680;5.394;2023-04-05T15:04:55;11.27;;;6.65;;
45522;SDS011;31254;51.680;5.394;2023-04-05T15:07:28;13.20;;;6.95;;
45522;SDS011;31254;51.680;5.394;2023-04-05T15:09:54;9.48;;;6.80;;
45522;SDS011;31254;51.680;5.394;2023-04-05T15:12:21;11.77;;;7.03;;
45522;SDS011;31254;51.680;5.394;2023-04-05T15:14:50;11.52;;;7.07;;
45522;SDS011;31254;51.680;5.394;2023-04-05T15:17:19;11.07;;;6.68;;
45522;SDS011;31254;51.680;5.394;2023-04-05T15:19:46;12.52;;;6.65;;
45522;SDS011;31254;51.680;5.394;2023-04-05T15:22:13;10.13;;;6.38;;